Time;durP1;ratioP1;P1;durP2;ratioP2;P2;SDS_P1;SDS_P2;PMS_P1;PMS_P2;Temp;Humidity;BMP_temperature;BMP_pressure;BME280_temperature;BME280_humidity;BME280_pressure;Samples;Min_cycle;Max_cycle;Signal;HPM_P1;HPM_P2
2023/11/10 00:00:12;;;;;;;22.00;15.10;;;;;;;-147.86;100.00;50120.85;105934;1253;71520;-46
2023/11/10 00:02:39;;;;;;;25.60;16.20;;;;;;;-147.86;100.00;50124.38;105957;1256;60448;-47
2023/11/10 00:05:07;;;;;;;25.70;17.70;;;;;;;-147.86;100.00;50130.66;105918;1253;60482;-47
2023/11/10 00:07:34;;;;;;;28.00;17.20;;;;;;;-147.86;100.00;50126.34;105933;1256;71834;-45
2023/11/10 00:10:07;;;;;;;24.50;17.40;;;;;;;-147.86;100.00;50133.40;105939;1251;65490;-50
2023/11/10 00:12:34;;;;;;;26.70;17.00;;;;;;;-147.86;100.00;50123.21;105864;1255;72695;-51
2023/11/10 00:15:00;;;;;;;26.80;16.10;;;;;;;-147.86;100.00;50133.01;105861;1252;61089;-49
2023/11/10 00:17:27;;;;;;;25.90;16.80;;;;;;;-147.86;100.00;50120.85;105934;1252;60886;-47
2023/11/10 00:19:55;;;;;;;29.90;16.60;;;;;;;-147.86;100.00;50125.55;106011;1256;73769;-47
2023/11/10 00:22:21;;;;;;;26.50;16.70;;;;;;;-147.86;100.00;50116.14;105898;1253;65417;-48
2023/11/10 00:24:48;;;;;;;29.10;18.20;;;;;;;-147.86;100.00;50127.13;105925;1256;72672;-49
2023/11/10 00:27:16;;;;;;;23.40;17.10;;;;;;;-147.86;100.00;50120.85;105879;1256;62039;-50
2023/11/10 00:29:44;;;;;;;34.80;16.40;;;;;;;-147.86;100.00;50102.02;105911;1252;60534;-46
2023/11/10 00:32:11;;;;;;;25.00;17.60;;;;;;;-147.86;100.00;50119.68;105959;1255;73862;-45
2023/11/10 00:34:39;;;;;;;24.50;17.20;;;;;;;-147.86;100.00;50095.35;105952;1255;64137;-47
2023/11/10 00:37:06;;;;;;;27.50;18.70;;;;;;;-147.86;100.00;50122.81;105944;1254;72717;-45
2023/11/10 00:39:33;;;;;;;29.10;17.80;;;;;;;-147.86;100.00;50108.30;105881;1252;61896;-45
2023/11/10 00:42:00;;;;;;;29.30;17.20;;;;;;;-147.86;100.00;50112.61;105929;1252;60446;-47
2023/11/10 00:44:27;;;;;;;21.90;16.70;;;;;;;-147.86;100.00;50105.95;105955;1252;73807;-46
2023/11/10 00:46:54;;;;;;;23.60;16.70;;;;;;;-147.86;100.00;50112.61;105741;1257;65401;-44
2023/11/10 00:49:21;;;;;;;27.50;17.40;;;;;;;-147.86;100.00;50098.89;105912;1253;72651;-46
2023/11/10 00:51:49;;;;;;;27.20;17.70;;;;;;;-147.86;100.00;50101.63;105977;1256;62061;-47
2023/11/10 00:54:16;;;;;;;30.50;18.30;;;;;;;-147.86;100.00;50105.16;105940;1251;60531;-46
2023/11/10 00:56:44;;;;;;;23.50;16.90;;;;;;;-147.86;100.00;50085.15;105883;1255;73713;-46
2023/11/10 00:59:11;;;;;;;27.40;16.40;;;;;;;-147.86;100.00;50087.12;105966;1253;64573;-49
2023/11/10 01:01:38;;;;;;;25.70;16.30;;;;;;;-147.86;100.00;50082.02;105914;1253;71404;-48
2023/11/10 01:04:06;;;;;;;27.80;16.70;;;;;;;-147.86;100.00;50083.98;105895;1256;60564;-48
2023/11/10 01:06:33;;;;;;;27.80;18.20;;;;;;;-147.86;100.00;50080.84;105916;1256;60425;-48
2023/11/10 01:09:00;;;;;;;27.00;17.00;;;;;;;-147.86;100.00;50082.80;105954;1254;73776;-46
2023/11/10 01:11:27;;;;;;;26.40;17.00;;;;;;;-147.86;100.00;50069.07;105894;1256;65569;-49
2023/11/10 01:13:54;;;;;;;23.10;16.20;;;;;;;-147.86;100.00;50076.52;105905;1252;72609;-47
2023/11/10 01:16:21;;;;;;;25.60;16.10;;;;;;;-147.86;100.00;50102.41;105745;1253;61939;-48
2023/11/10 01:18:48;;;;;;;22.60;16.30;;;;;;;-147.86;100.00;50093.79;106001;1253;60431;-47
2023/11/10 01:21:18;;;;;;;28.10;17.30;;;;;;;-147.86;100.00;50070.64;105946;1253;73776;-47
2023/11/10 01:23:45;;;;;;;25.30;17.30;;;;;;;-147.86;100.00;50079.27;105897;1256;65541;-50
2023/11/10 01:26:12;;;;;;;27.00;16.50;;;;;;;-147.86;100.00;50074.17;105856;1253;72996;-49
2023/11/10 01:28:39;;;;;;;24.40;17.00;;;;;;;-147.86;100.00;50087.51;105697;1253;62333;-47
2023/11/10 01:31:06;;;;;;;29.30;17.00;;;;;;;-147.86;100.00;50087.51;105889;1251;60520;-48
2023/11/10 01:33:32;;;;;;;22.10;14.80;;;;;;;-147.86;100.00;50062.79;105973;1253;73751;-45
2023/11/10 01:36:00;;;;;;;22.60;15.10;;;;;;;-147.86;100.00;50074.96;105716;1257;64589;-46
2023/11/10 01:38:27;;;;;;;25.00;16.00;;;;;;;-147.86;100.00;50068.29;105918;1253;72690;-47
2023/11/10 01:40:54;;;;;;;23.80;15.90;;;;;;;-147.86;100.00;50062.01;105932;1253;61955;-49
2023/11/10 01:43:23;;;;;;;22.60;15.60;;;;;;;-147.86;100.00;50078.09;105871;1253;60757;-45
2023/11/10 01:45:50;;;;;;;25.10;16.00;;;;;;;-147.86;100.00;50051.42;105748;1253;73697;-45
2023/11/10 01:48:17;;;;;;;22.30;15.50;;;;;;;-147.86;100.00;50055.34;105742;1253;65471;-49
2023/11/10 01:50:44;;;;;;;29.20;15.20;;;;;;;-147.86;100.00;50040.05;105730;1253;72686;-49
2023/11/10 01:53:11;;;;;;;24.10;15.10;;;;;;;-147.86;100.00;50058.09;105675;1253;60490;-45
2023/11/10 01:55:38;;;;;;;21.20;15.80;;;;;;;-147.86;100.00;50051.42;105907;1252;60597;-49
2023/11/10 01:58:05;;;;;;;26.80;17.00;;;;;;;-147.86;100.00;50051.81;105897;1251;72422;-44
2023/11/10 02:00:33;;;;;;;24.90;15.80;;;;;;;-147.86;100.00;50053.77;105694;1253;65579;-49
2023/11/10 02:03:04;;;;;;;26.70;16.00;;;;;;;-147.86;100.00;50034.95;105696;1253;72655;-45
2023/11/10 02:05:34;;;;;;;22.00;15.30;;;;;;;-147.86;100.00;50040.83;105934;1253;61799;-48
2023/11/10 02:08:02;;;;;;;25.40;16.20;;;;;;;-147.86;100.00;50038.87;105937;1251;60462;-48
2023/11/10 02:10:31;;;;;;;24.90;16.20;;;;;;;-147.86;100.00;50047.89;105915;1252;72683;-47
2023/11/10 02:12:59;;;;;;;25.80;16.80;;;;;;;-147.86;100.00;50032.20;105964;1252;63057;-45
2023/11/10 02:15:30;;;;;;;25.30;17.00;;;;;;;-147.86;100.00;50034.95;105890;1252;72514;-48
2023/11/10 02:17:58;;;;;;;24.00;16.20;;;;;;;-147.86;100.00;50035.34;105925;1256;61973;-47
2023/11/10 02:20:25;;;;;;;25.90;15.60;;;;;;;-147.86;100.00;50027.89;105927;1251;60395;-50
2023/11/10 02:22:53;;;;;;;22.50;15.50;;;;;;;-147.86;100.00;50044.75;105893;1253;73893;-50
2023/11/10 02:25:20;;;;;;;28.10;18.20;;;;;;;-147.86;100.00;50039.26;105692;1258;65286;-47
2023/11/10 02:27:47;;;;;;;25.60;17.50;;;;;;;-147.86;100.00;50032.59;105930;1256;71296;-48
2023/11/10 02:30:15;;;;;;;23.10;15.60;;;;;;;-147.86;100.00;50026.71;105891;1253;61175;-48
2023/11/10 02:32:43;;;;;;;16.80;13.10;;;;;;;-147.86;100.00;50029.06;105918;1253;60479;-47
2023/11/10 02:35:10;;;;;;;16.70;12.10;;;;;;;-147.86;100.00;50021.22;105760;1253;73764;-50
2023/11/10 02:37:38;;;;;;;16.00;12.10;;;;;;;-147.86;100.00;50025.93;105937;1256;64572;-45
2023/11/10 02:40:06;;;;;;;19.20;11.80;;;;;;;-147.86;100.00;50018.47;105861;1253;72591;-48
2023/11/10 02:42:34;;;;;;;17.50;11.70;;;;;;;-147.86;100.00;50022.79;105913;1256;61134;-51
2023/11/10 02:45:02;;;;;;;15.80;11.70;;;;;;;-147.86;100.00;50017.69;105953;1253;60467;-48
2023/11/10 02:47:33;;;;;;;15.80;12.00;;;;;;;-147.86;100.00;50041.22;105911;1256;73821;-46
2023/11/10 02:50:00;;;;;;;13.20;11.50;;;;;;;-147.86;100.00;50017.68;105943;1255;65398;-46
2023/11/10 02:52:27;;;;;;;16.90;12.10;;;;;;;-147.86;100.00;50011.41;105719;1253;72664;-47
2023/11/10 02:54:53;;;;;;;12.80;10.20;;;;;;;-147.86;100.00;50007.88;105890;1256;60342;-48
2023/11/10 02:57:21;;;;;;;12.00;9.80;;;;;;;-147.86;100.00;50021.61;105897;1251;60526;-51
2023/11/10 02:59:49;;;;;;;16.60;10.30;;;;;;;-147.86;100.00;50011.41;105921;1256;72666;-50
2023/11/10 03:02:16;;;;;;;19.60;13.40;;;;;;;-147.86;100.00;50013.76;105933;1256;65515;-46
2023/11/10 03:04:43;;;;;;;14.10;11.20;;;;;;;-147.86;100.00;50025.54;105939;1253;72638;-47
2023/11/10 03:07:10;;;;;;;16.00;12.80;;;;;;;-147.86;100.00;50029.85;105887;1256;61160;-46
2023/11/10 03:09:40;;;;;;;24.10;14.60;;;;;;;-147.86;100.00;50029.45;105910;1252;60415;-50
2023/11/10 03:12:08;;;;;;;16.60;13.80;;;;;;;-147.86;100.00;50006.31;105932;1251;73814;-47
2023/11/10 03:14:36;;;;;;;22.50;13.50;;;;;;;-147.86;100.00;50025.53;105872;1256;63971;-46
2023/11/10 03:17:04;;;;;;;20.80;15.20;;;;;;;-147.86;100.00;50012.20;105966;1253;72645;-54
2023/11/10 03:19:31;;;;;;;23.50;15.50;;;;;;;-147.86;100.00;49999.64;105754;1259;60531;-48
2023/11/10 03:21:58;;;;;;;26.30;17.40;;;;;;;-147.86;100.00;50005.52;105884;1252;60507;-46
2023/11/10 03:26:09;;;;;;;19.50;12.50;;;;;;;-147.86;100.00;50085.18;103819;1280;616495;-46
2023/11/10 03:28:36;;;;;;;17.30;13.60;;;;;;;-147.86;100.00;50178.51;105090;1268;62008;-46
2023/11/10 03:31:07;;;;;;;20.50;15.40;;;;;;;-147.86;100.00;50122.42;105086;1266;60151;-46
2023/11/10 03:33:35;;;;;;;24.20;16.10;;;;;;;-147.86;100.00;50083.98;105181;1264;72128;-48
2023/11/10 03:36:05;;;;;;;33.10;18.90;;;;;;;-147.86;100.00;50048.28;105123;1265;65515;-45
2023/11/10 03:38:33;;;;;;;23.90;16.30;;;;;;;-147.86;100.00;50055.34;104986;1263;222941;-46
2023/11/10 03:41:01;;;;;;;21.40;15.70;;;;;;;-147.86;100.00;50047.11;105301;1265;61078;-47
2023/11/10 03:43:28;;;;;;;30.90;18.30;;;;;;;-147.86;100.00;50037.70;105217;1263;60315;-47
2023/11/10 03:45:58;;;;;;;27.80;17.70;;;;;;;-147.86;100.00;50030.24;105219;1263;72238;-48
2023/11/10 03:48:25;;;;;;;24.60;17.20;;;;;;;-147.86;100.00;50034.95;105241;1266;65440;-49
2023/11/10 03:50:52;;;;;;;25.10;17.20;;;;;;;-147.86;100.00;50021.21;105196;1263;72647;-47
2023/11/10 03:53:20;;;;;;;29.00;17.50;;;;;;;-147.86;100.00;50012.98;105250;1262;61124;-45
2023/11/10 03:55:46;;;;;;;23.60;16.00;;;;;;;-147.86;100.00;50018.08;105216;1263;60537;-46
2023/11/10 03:58:13;;;;;;;23.10;15.10;;;;;;;-147.86;100.00;49999.25;105628;1259;72792;-49
2023/11/10 04:00:40;;;;;;;19.40;14.70;;;;;;;-147.86;100.00;49991.01;105618;1258;65239;-46
2023/11/10 04:03:15;;;;;;;21.50;15.70;;;;;;;-147.86;100.00;49999.25;105682;1257;71180;-46
2023/11/10 04:05:46;;;;;;;25.50;15.60;;;;;;;-147.86;100.00;50000.43;105638;1256;60139;-44
2023/11/10 04:08:14;;;;;;;20.80;14.00;;;;;;;-147.86;100.00;49991.80;105676;1255;60172;-47
2023/11/10 04:10:42;;;;;;;21.70;14.80;;;;;;;-147.86;100.00;50000.43;105670;1258;73636;-48
2023/11/10 04:13:09;;;;;;;21.10;15.20;;;;;;;-147.86;100.00;50005.53;105644;1256;65461;-47
2023/11/10 04:15:35;;;;;;;27.30;16.10;;;;;;;-147.86;100.00;50001.61;105665;1256;72587;-48
2023/11/10 04:18:02;;;;;;;18.30;13.70;;;;;;;-147.86;100.00;49990.62;105631;1258;61001;-46
2023/11/10 04:20:30;;;;;;;18.60;13.40;;;;;;;-147.86;100.00;49989.05;105667;1256;60279;-45
2023/11/10 04:22:57;;;;;;;21.20;12.70;;;;;;;-147.86;100.00;49970.23;105664;1256;72770;-46
2023/11/10 04:25:24;;;;;;;17.10;12.00;;;;;;;-147.86;100.00;49989.05;105653;1258;65474;-46
2023/11/10 04:27:52;;;;;;;19.20;13.50;;;;;;;-147.86;100.00;49991.01;105661;1256;72464;-45
2023/11/10 04:30:19;;;;;;;21.50;14.40;;;;;;;-147.86;100.00;49984.74;105633;1258;60123;-49
2023/11/10 04:32:47;;;;;;;18.20;13.10;;;;;;;-147.86;100.00;49989.45;105666;1256;60279;-46
2023/11/10 04:35:17;;;;;;;23.20;13.90;;;;;;;-147.86;100.00;49989.84;105634;1257;72928;-49
2023/11/10 04:37:44;;;;;;;23.00;14.50;;;;;;;-147.86;100.00;49974.93;105617;1258;65489;-45
2023/11/10 04:40:11;;;;;;;24.30;14.80;;;;;;;-147.86;100.00;49969.05;105634;1257;72576;-47
2023/11/10 04:42:39;;;;;;;20.70;15.00;;;;;;;-147.86;100.00;49976.89;105645;1259;62089;-48
2023/11/10 04:45:07;;;;;;;21.20;14.80;;;;;;;-147.86;100.00;49969.83;105668;1255;59989;-45
2023/11/10 04:47:37;;;;;;;24.60;16.60;;;;;;;-147.86;100.00;49973.36;105668;1256;70536;-49
2023/11/10 04:50:05;;;;;;;31.00;18.30;;;;;;;-147.86;100.00;49972.97;105649;1259;65376;-45
2023/11/10 04:52:32;;;;;;;28.30;18.60;;;;;;;-147.86;100.00;49977.29;105648;1256;72645;-46
2023/11/10 04:54:59;;;;;;;30.50;19.10;;;;;;;-147.86;100.00;49972.97;105618;1256;61062;-50
2023/11/10 04:57:26;;;;;;;34.20;21.30;;;;;;;-147.86;100.00;49952.96;105632;1256;60178;-48
2023/11/10 04:59:54;;;;;;;30.60;20.10;;;;;;;-147.86;100.00;49944.34;105602;1259;73116;-47
2023/11/10 05:02:22;;;;;;;28.70;17.80;;;;;;;-147.86;100.00;49951.39;105633;1259;65415;-48
2023/11/10 05:04:50;;;;;;;24.70;17.50;;;;;;;-147.86;100.00;49948.26;105605;1256;72947;-45
2023/11/10 05:07:16;;;;;;;23.00;16.90;;;;;;;-147.86;100.00;49961.20;105660;1259;60314;-48
2023/11/10 05:09:44;;;;;;;24.70;17.60;;;;;;;-147.86;100.00;49935.32;105656;1257;60318;-49
2023/11/10 05:12:11;;;;;;;31.20;19.50;;;;;;;-147.86;100.00;49931.78;105679;1256;73002;-48
2023/11/10 05:14:40;;;;;;;28.50;18.60;;;;;;;-147.86;100.00;49921.98;105637;1257;64868;-45
2023/11/10 05:17:08;;;;;;;30.00;19.80;;;;;;;-147.86;100.00;49934.53;105594;1256;72805;-49
2023/11/10 05:19:35;;;;;;;34.70;19.90;;;;;;;-147.86;100.00;49933.35;105668;1256;60185;-46
2023/11/10 05:22:03;;;;;;;25.90;18.70;;;;;;;-147.86;100.00;49912.95;105683;1256;60310;-47
2023/11/10 05:24:30;;;;;;;22.10;17.50;;;;;;;-147.86;100.00;49903.94;105655;1259;71981;-46
2023/11/10 05:26:56;;;;;;;29.90;18.50;;;;;;;-147.86;100.00;49903.94;105656;1259;65476;-45
2023/11/10 05:29:23;;;;;;;22.70;15.80;;;;;;;-147.86;100.00;49897.66;105673;1256;72546;-47
2023/11/10 05:31:53;;;;;;;20.80;14.70;;;;;;;-147.86;100.00;49897.66;105603;1259;62014;-46
2023/11/10 05:34:20;;;;;;;26.70;15.80;;;;;;;-147.86;100.00;49895.70;105674;1256;60470;-45
2023/11/10 05:36:47;;;;;;;23.30;14.30;;;;;;;-147.86;100.00;49900.80;105698;1259;72973;-49
2023/11/10 05:39:15;;;;;;;21.20;14.30;;;;;;;-147.86;100.00;49887.46;105635;1259;65543;-47
2023/11/10 05:41:44;;;;;;;23.00;15.10;;;;;;;-147.86;100.00;49883.14;105634;1256;72493;-46
2023/11/10 05:44:11;;;;;;;20.30;15.00;;;;;;;-147.86;100.00;49888.24;105618;1259;61976;-48
2023/11/10 05:46:38;;;;;;;25.90;17.20;;;;;;;-147.86;100.00;49887.46;105641;1256;59741;-46
2023/11/10 05:49:08;;;;;;;24.00;16.80;;;;;;;-147.86;100.00;49897.66;105653;1257;73001;-45
2023/11/10 05:51:35;;;;;;;22.70;15.40;;;;;;;-147.86;100.00;49874.12;105705;1259;64692;-46
2023/11/10 05:54:02;;;;;;;20.80;16.20;;;;;;;-147.86;100.00;49883.14;105634;1255;72711;-49
2023/11/10 05:56:29;;;;;;;18.00;13.70;;;;;;;-147.86;100.00;49870.99;105636;1259;61775;-48
2023/11/10 05:58:58;;;;;;;18.30;14.00;;;;;;;-147.86;100.00;49870.59;105627;1256;60258;-45
2023/11/10 06:01:25;;;;;;;18.50;14.00;;;;;;;-147.86;100.00;49878.05;105583;1259;73320;-46
2023/11/10 06:03:52;;;;;;;22.80;14.70;;;;;;;-147.86;100.00;49875.30;105610;1259;65376;-48
2023/11/10 06:06:19;;;;;;;21.40;13.80;;;;;;;-147.86;100.00;49847.06;105596;1257;72679;-47
2023/11/10 06:08:46;;;;;;;19.90;15.20;;;;;;;-147.86;100.00;49872.55;105651;1259;61961;-46
2023/11/10 06:11:20;;;;;;;21.50;15.40;;;;;;;-147.86;100.00;49860.79;105669;1255;60420;-45
2023/11/10 06:13:49;;;;;;;24.30;17.00;;;;;;;-147.86;100.00;49867.46;105629;1259;72206;-47
2023/11/10 06:16:17;;;;;;;25.40;17.70;;;;;;;-147.86;100.00;49868.63;105653;1259;65529;-47
2023/11/10 06:18:45;;;;;;;23.40;18.00;;;;;;;-147.86;100.00;49843.14;105623;1259;72619;-50
2023/11/10 06:21:12;;;;;;;28.60;17.60;;;;;;;-147.86;100.00;49837.65;105644;1259;61989;-48
2023/11/10 06:23:39;;;;;;;27.90;17.80;;;;;;;-147.86;100.00;49817.64;105658;1256;60622;-49
2023/11/10 06:26:07;;;;;;;27.10;17.70;;;;;;;-147.86;100.00;49848.63;105619;1258;73023;-47
2023/11/10 06:28:37;;;;;;;26.00;16.30;;;;;;;-147.86;100.00;49830.19;105627;1257;65177;-49
2023/11/10 06:31:04;;;;;;;23.00;17.90;;;;;;;-147.86;100.00;49834.90;105608;1256;72621;-46
2023/11/10 06:33:31;;;;;;;25.90;17.50;;;;;;;-147.86;100.00;49818.82;105637;1259;62037;-48
2023/11/10 06:35:58;;;;;;;25.90;16.60;;;;;;;-147.86;100.00;49800.38;105608;1259;60382;-46
2023/11/10 06:38:25;;;;;;;22.90;17.40;;;;;;;-147.86;100.00;49809.80;105656;1255;73307;-49
2023/11/10 06:40:53;;;;;;;23.20;15.60;;;;;;;-147.86;100.00;49816.86;105697;1259;64843;-48
2023/11/10 06:43:21;;;;;;;22.00;15.20;;;;;;;-147.86;100.00;49825.10;105618;1257;70951;-47
2023/11/10 06:45:48;;;;;;;21.40;14.20;;;;;;;-147.86;100.00;49786.26;105652;1259;60398;-49
2023/11/10 06:48:16;;;;;;;20.00;14.90;;;;;;;-147.86;100.00;49789.79;105630;1256;60098;-49
2023/11/10 06:50:43;;;;;;;19.10;15.50;;;;;;;-147.86;100.00;49802.34;105669;1259;72923;-48
2023/11/10 06:53:10;;;;;;;24.70;14.90;;;;;;;-147.86;100.00;49798.03;105610;1259;65488;-51
2023/11/10 06:55:37;;;;;;;19.30;13.70;;;;;;;-147.86;100.00;49790.97;105597;1257;72703;-49
2023/11/10 06:58:06;;;;;;;19.90;14.50;;;;;;;-147.86;100.00;49789.01;105642;1259;60175;-51
2023/11/10 07:00:34;;;;;;;20.40;14.70;;;;;;;-147.86;100.00;49794.89;105647;1256;60157;-49
2023/11/10 07:03:02;;;;;;;18.60;14.10;;;;;;;-147.86;100.00;49806.66;105667;1257;72695;-52
2023/11/10 07:05:31;;;;;;;26.30;14.50;;;;;;;-147.86;100.00;49777.63;105641;1259;64684;-47
2023/11/10 07:07:59;;;;;;;19.00;14.50;;;;;;;-147.86;100.00;49788.23;105637;1257;74448;-52
2023/11/10 07:10:28;;;;;;;16.40;12.90;;;;;;;-147.86;100.00;49772.14;105671;1255;61961;-52
2023/11/10 07:12:55;;;;;;;22.90;15.10;;;;;;;-147.86;100.00;49771.75;105685;1257;60280;-54
2023/11/10 07:15:22;;;;;;;19.30;14.20;;;;;;;-147.86;100.00;49763.91;105592;1257;73012;-50
2023/11/10 07:17:50;;;;;;;25.30;14.10;;;;;;;-147.86;100.00;49780.38;105629;1259;65468;-48
2023/11/10 07:20:17;;;;;;;27.60;13.20;;;;;;;-147.86;100.00;49781.95;105628;1257;73058;-48
2023/11/10 07:22:44;;;;;;;23.40;12.20;;;;;;;-147.86;100.00;49776.46;105618;1259;61945;-50
2023/11/10 07:25:11;;;;;;;20.60;13.90;;;;;;;-147.86;100.00;49780.38;105584;1257;60206;-50
2023/11/10 07:27:38;;;;;;;17.30;13.30;;;;;;;-147.86;100.00;49770.18;105637;1259;73142;-51
2023/11/10 07:30:06;;;;;;;16.70;12.80;;;;;;;-147.86;100.00;49786.26;105627;1259;64769;-51
2023/11/10 07:32:33;;;;;;;22.20;12.90;;;;;;;-147.86;100.00;49783.13;105616;1259;72472;-48
2023/11/10 07:35:03;;;;;;;17.30;11.00;;;;;;;-147.86;100.00;49779.59;105609;1257;62127;-47
2023/11/10 07:37:34;;;;;;;14.30;10.20;;;;;;;-147.86;100.00;49779.99;105684;1259;60428;-49
2023/11/10 07:40:05;;;;;;;15.40;10.70;;;;;;;-147.86;100.00;49784.70;105665;1256;73781;-50
2023/11/10 07:42:33;;;;;;;14.90;10.30;;;;;;;-147.86;100.00;49794.89;105636;1259;64186;-46
2023/11/10 07:45:00;;;;;;;13.00;10.30;;;;;;;-147.86;100.00;49779.20;105626;1256;72643;-49
2023/11/10 07:47:28;;;;;;;14.00;9.60;;;;;;;-147.86;100.00;49792.54;105584;1259;61766;-49
2023/11/10 07:49:55;;;;;;;13.10;9.30;;;;;;;-147.86;100.00;49797.25;105635;1257;60489;-48
2023/11/10 07:52:24;;;;;;;22.40;10.30;;;;;;;-147.86;100.00;49808.62;105630;1255;73810;-50
2023/11/10 07:54:51;;;;;;;14.30;8.90;;;;;;;-147.86;100.00;49822.35;105642;1257;64733;-48
2023/11/10 07:57:28;;;;;;;21.70;10.30;;;;;;;-147.86;100.00;49845.49;105651;1256;72689;-49
2023/11/10 07:59:55;;;;;;;13.70;9.10;;;;;;;-147.86;100.00;49858.43;105666;1257;61972;-50
2023/11/10 08:02:22;;;;;;;16.20;9.10;;;;;;;-147.86;100.00;49901.58;105639;1256;60453;-49
2023/11/10 08:04:49;;;;;;;12.80;9.90;;;;;;;-147.86;100.00;49920.80;105659;1259;73982;-51
2023/11/10 08:07:16;;;;;;;16.50;9.00;;;;;;;-147.86;100.00;49955.32;105672;1256;65328;-50
2023/11/10 08:09:43;;;;;;;13.20;9.00;;;;;;;-147.86;100.00;50014.16;105653;1259;72717;-48
2023/11/10 08:12:10;;;;;;;18.50;8.90;;;;;;;-147.86;100.00;50086.73;105584;1259;61821;-48
2023/11/10 08:14:37;;;;;;;12.30;9.20;;;;;;;-147.86;100.00;50147.91;105608;1256;60453;-48
2023/11/10 08:17:06;;;;;;;13.20;8.60;;;;;;;-147.86;100.00;50198.91;105654;1259;73859;-49
2023/11/10 08:19:33;;;;;;;15.10;9.20;;;;;;;-147.86;100.00;50267.56;105627;1259;64832;-51
2023/11/10 08:22:00;;;;;;;15.00;8.30;;;;;;;-147.86;100.00;50348.76;105605;1259;72437;-47
2023/11/10 08:24:30;;;;;;;13.60;9.10;;;;;;;-147.86;100.00;50389.56;105680;1259;60443;-52
2023/11/10 08:26:58;;;;;;;12.60;8.60;;;;;;;-147.86;100.00;50464.09;105621;1255;60479;-48
2023/11/10 08:29:25;;;;;;;12.60;8.60;;;;;;;-147.86;100.00;50510.00;105632;1259;73615;-47
2023/11/10 08:31:53;;;;;;;9.90;7.30;;;;;;;-147.86;100.00;50520.20;105650;1256;65529;-46
2023/11/10 08:34:21;;;;;;;10.60;8.30;;;;;;;-147.86;100.00;50482.53;105695;1257;73026;-47
2023/11/10 08:36:48;;;;;;;9.40;8.00;;;;;;;-147.86;100.00;50384.46;105633;1259;60754;-47
2023/11/10 08:39:20;;;;;;;11.50;7.00;;;;;;;-147.86;100.00;50215.39;105913;1251;60888;-46
2023/11/10 08:41:48;;;;;;;16.00;7.80;;;;;;;-147.86;100.00;50043.57;105891;1256;72967;-45
2023/11/10 08:44:16;;;;;;;10.10;7.60;;;;;;;-147.86;100.00;49846.27;105936;1256;66473;-45
2023/11/10 08:46:45;;;;;;;15.20;8.10;;;;;;;-147.86;100.00;49634.48;105933;1256;72538;-50
2023/11/10 08:49:13;;;;;;;10.40;7.60;;;;;;;-147.86;100.00;49435.23;105907;1256;62139;-48
2023/11/10 08:51:41;;;;;;;10.60;7.90;;;;;;;-147.86;100.00;49271.69;105919;1253;60560;-47
2023/11/10 08:54:08;;;;;;;10.50;7.60;;;;;;;-147.86;100.00;49102.27;105882;1251;73644;-48
2023/11/10 08:56:35;;;;;;;9.80;6.80;;;;;;;-147.86;100.00;48934.43;105881;1256;64851;-48
2023/11/10 08:59:05;;;;;;;9.10;7.00;;;;;;;-147.86;100.00;48837.18;105910;1253;72612;-51
2023/11/10 09:01:33;;;;;;;9.60;6.60;;;;;;;-147.86;100.00;48757.58;105941;1256;60405;-47
2023/11/10 09:04:04;;;;;;;10.00;6.70;;;;;;;-147.86;100.00;48714.84;105941;1252;61341;-48
2023/11/10 09:06:48;;;;;;;8.00;6.20;;;;;;;-147.86;100.00;48643.08;105878;1253;73926;-50
2023/11/10 09:09:16;;;;;;;12.60;6.30;;;;;;;-147.86;100.00;48550.54;105952;1256;66620;-50
2023/11/10 09:11:44;;;;;;;6.70;5.20;;;;;;;-147.86;100.00;48546.23;105880;1254;71476;-50
2023/11/10 09:14:11;;;;;;;16.00;4.50;;;;;;;-147.86;100.00;48488.59;105933;1254;63890;-47
2023/11/10 09:16:38;;;;;;;6.50;4.10;;;;;;;-147.86;100.00;48450.95;105881;1253;60579;-49
2023/11/10 09:19:05;;;;;;;7.70;4.30;;;;;;;-147.86;100.00;48404.68;105915;1251;75645;-50
2023/11/10 09:21:32;;;;;;;5.20;4.40;;;;;;;-147.86;100.00;48374.09;105909;1255;65515;-48
2023/11/10 09:23:59;;;;;;;16.40;4.50;;;;;;;-147.86;100.00;48362.34;105945;1251;72532;-48
2023/11/10 09:26:27;;;;;;;9.00;4.10;;;;;;;-147.86;100.00;48355.27;105938;1252;61920;-48
2023/11/10 09:28:54;;;;;;;4.60;3.90;;;;;;;-147.86;100.00;48358.41;105987;1252;61135;-49
2023/11/10 09:31:22;;;;;;;5.50;4.30;;;;;;;-147.86;100.00;48365.08;105965;1252;73775;-47
2023/11/10 09:33:52;;;;;;;7.20;4.90;;;;;;;-147.86;100.00;48360.37;105948;1256;65159;-47
2023/11/10 09:36:19;;;;;;;5.90;4.80;;;;;;;-147.86;100.00;48372.53;105901;1254;72683;-47
2023/11/10 09:38:46;;;;;;;9.60;5.00;;;;;;;-147.86;100.00;48364.68;105901;1253;61912;-49
2023/11/10 09:41:16;;;;;;;6.70;4.70;;;;;;;-147.86;100.00;48363.90;105922;1253;61817;-51
2023/11/10 09:43:45;;;;;;;10.00;4.90;;;;;;;-147.86;100.00;48355.28;105906;1253;74415;-50
2023/11/10 09:46:12;;;;;;;4.90;4.40;;;;;;;-147.86;100.00;48351.35;105948;1256;65611;-51
2023/11/10 09:48:41;;;;;;;4.10;3.80;;;;;;;-147.86;100.00;48332.54;105837;1254;72332;-45
2023/11/10 09:51:10;;;;;;;8.70;4.50;;;;;;;-147.86;100.00;48334.89;105865;1259;60489;-49
2023/11/10 09:53:38;;;;;;;4.60;4.10;;;;;;;-147.86;100.00;48337.63;105923;1256;60325;-47
2023/11/10 09:56:05;;;;;;;5.90;4.20;;;;;;;-147.86;100.00;48323.13;105852;1256;73791;-45
2023/11/10 09:58:36;;;;;;;5.80;4.10;;;;;;;-147.86;100.00;48325.08;105880;1259;65690;-50
2023/11/10 10:01:03;;;;;;;6.20;3.70;;;;;;;-147.86;100.00;48328.23;105928;1252;73189;-50
2023/11/10 10:03:30;;;;;;;5.90;3.90;;;;;;;-147.86;100.00;48334.89;105879;1257;60278;-50
2023/11/10 10:06:01;;;;;;;5.00;3.90;;;;;;;-147.86;100.00;48327.83;105898;1256;60561;-48
2023/11/10 10:08:28;;;;;;;8.80;4.00;;;;;;;-147.86;100.00;48318.02;105927;1252;72420;-51
2023/11/10 10:10:55;;;;;;;4.90;3.90;;;;;;;-147.86;100.00;48343.51;105932;1256;66322;-51
2023/11/10 10:13:26;;;;;;;6.50;4.40;;;;;;;-147.86;100.00;48319.99;105927;1256;73413;-49
2023/11/10 10:15:54;;;;;;;7.40;3.90;;;;;;;-147.86;100.00;48336.07;105917;1253;60659;-47
2023/11/10 10:18:22;;;;;;;4.60;3.40;;;;;;;-147.86;100.00;48336.85;105937;1253;60495;-48
2023/11/10 10:20:58;;;;;;;5.80;3.10;;;;;;;-147.86;100.00;48329.40;105909;1256;73451;-50
2023/11/10 10:23:27;;;;;;;4.20;2.80;;;;;;;-147.86;100.00;48323.91;105959;1253;63294;-51
2023/11/10 10:25:55;;;;;;;7.80;2.90;;;;;;;-147.86;100.00;48328.61;105917;1253;72123;-51
2023/11/10 10:28:23;;;;;;;9.40;3.20;;;;;;;-147.86;100.00;48318.03;105914;1256;60614;-52
2023/11/10 10:30:51;;;;;;;3.80;2.80;;;;;;;-147.86;100.00;48316.46;105888;1252;60845;-48
2023/11/10 10:33:18;;;;;;;2.80;2.60;;;;;;;-147.86;100.00;48321.17;105940;1251;72528;-51
2023/11/10 10:35:47;;;;;;;8.90;3.00;;;;;;;-147.86;100.00;48324.70;105870;1256;64953;-48
2023/11/10 10:38:14;;;;;;;6.50;2.90;;;;;;;-147.86;100.00;48326.26;105865;1256;72360;-50
2023/11/10 10:40:42;;;;;;;4.40;3.30;;;;;;;-147.86;100.00;48312.15;105862;1257;60358;-48
2023/11/10 10:43:09;;;;;;;5.40;3.10;;;;;;;-147.86;100.00;48320.77;105967;1252;60547;-51
2023/11/10 10:45:36;;;;;;;7.80;3.40;;;;;;;-147.86;100.00;48328.61;105921;1257;73898;-51
2023/11/10 10:48:05;;;;;;;7.70;3.40;;;;;;;-147.86;100.00;48326.26;105866;1256;65431;-50
2023/11/10 10:50:33;;;;;;;9.10;3.50;;;;;;;-147.86;100.00;48312.54;105940;1255;72759;-48
2023/11/10 10:53:01;;;;;;;4.10;3.50;;;;;;;-147.86;100.00;48325.48;105923;1254;60531;-47